sensor_id;sensor_type;location;lat;lon;timestamp;temperature;humidity
420;DHT22;42600;54.408;13.016;2023-03-02T00:01:03;2.50;92.70
420;DHT22;42600;54.408;13.016;2023-03-02T00:03:31;2.50;92.70
420;DHT22;42600;54.408;13.016;2023-03-02T00:05:58;2.50;92.70
420;DHT22;42600;54.408;13.016;2023-03-02T00:08:27;2.50;92.70
420;DHT22;42600;54.408;13.016;2023-03-02T00:10:54;2.50;92.70
420;DHT22;42600;54.408;13.016;2023-03-02T00:13:21;2.40;92.70
420;DHT22;42600;54.408;13.016;2023-03-02T00:15:48;2.40;92.70
420;DHT22;42600;54.408;13.016;2023-03-02T00:18:15;2.40;92.70
420;DHT22;42600;54.408;13.016;2023-03-02T00:20:41;2.40;92.70
420;DHT22;42600;54.408;13.016;2023-03-02T00:23:08;2.40;92.70
420;DHT22;42600;54.408;13.016;2023-03-02T00:25:36;2.40;92.70
420;DHT22;42600;54.408;13.016;2023-03-02T00:28:03;2.30;92.70
420;DHT22;42600;54.408;13.016;2023-03-02T00:30:29;2.30;92.70
420;DHT22;42600;54.408;13.016;2023-03-02T00:32:56;2.40;92.70
420;DHT22;42600;54.408;13.016;2023-03-02T00:35:23;2.40;92.70
420;DHT22;42600;54.408;13.016;2023-03-02T00:37:50;2.40;92.70
420;DHT22;42600;54.408;13.016;2023-03-02T00:40:17;2.40;92.70
420;DHT22;42600;54.408;13.016;2023-03-02T00:42:45;2.50;92.70
420;DHT22;42600;54.408;13.016;2023-03-02T00:45:11;2.40;92.70
420;DHT22;42600;54.408;13.016;2023-03-02T00:47:38;2.40;92.70
420;DHT22;42600;54.408;13.016;2023-03-02T00:50:06;2.50;92.70
420;DHT22;42600;54.408;13.016;2023-03-02T00:52:33;2.50;92.70
420;DHT22;42600;54.408;13.016;2023-03-02T00:54:59;2.50;92.70
420;DHT22;42600;54.408;13.016;2023-03-02T00:57:26;2.50;92.70
420;DHT22;42600;54.408;13.016;2023-03-02T00:59:54;2.50;92.70
420;DHT22;42600;54.408;13.016;2023-03-02T01:02:21;2.50;92.70
420;DHT22;42600;54.408;13.016;2023-03-02T01:04:48;2.50;92.70
420;DHT22;42600;54.408;13.016;2023-03-02T01:07:17;2.50;92.70
420;DHT22;42600;54.408;13.016;2023-03-02T01:09:45;2.50;92.70
420;DHT22;42600;54.408;13.016;2023-03-02T01:12:13;2.50;92.70
420;DHT22;42600;54.408;13.016;2023-03-02T01:14:41;2.50;92.70
420;DHT22;42600;54.408;13.016;2023-03-02T01:17:10;2.60;92.70
420;DHT22;42600;54.408;13.016;2023-03-02T01:19:37;2.50;92.70
420;DHT22;42600;54.408;13.016;2023-03-02T01:22:04;2.50;92.70
420;DHT22;42600;54.408;13.016;2023-03-02T01:24:31;2.60;92.70
420;DHT22;42600;54.408;13.016;2023-03-02T01:26:58;2.60;92.70
420;DHT22;42600;54.408;13.016;2023-03-02T01:29:25;2.60;92.70
420;DHT22;42600;54.408;13.016;2023-03-02T01:31:52;2.60;92.70
420;DHT22;42600;54.408;13.016;2023-03-02T01:34:19;2.60;92.70
420;DHT22;42600;54.408;13.016;2023-03-02T01:36:46;2.60;92.70
420;DHT22;42600;54.408;13.016;2023-03-02T01:39:13;2.50;92.70
420;DHT22;42600;54.408;13.016;2023-03-02T01:41:40;2.60;92.70
420;DHT22;42600;54.408;13.016;2023-03-02T01:44:31;2.60;92.70
420;DHT22;42600;54.408;13.016;2023-03-02T01:46:58;2.60;92.70
420;DHT22;42600;54.408;13.016;2023-03-02T01:49:26;2.60;92.70
420;DHT22;42600;54.408;13.016;2023-03-02T01:51:53;2.60;92.70
420;DHT22;42600;54.408;13.016;2023-03-02T01:54:22;2.60;92.70
420;DHT22;42600;54.408;13.016;2023-03-02T01:56:50;2.60;92.70
420;DHT22;42600;54.408;13.016;2023-03-02T01:59:20;2.60;92.70
420;DHT22;42600;54.408;13.016;2023-03-02T02:01:50;2.60;92.70
420;DHT22;42600;54.408;13.016;2023-03-02T02:04:17;2.60;92.70
420;DHT22;42600;54.408;13.016;2023-03-02T02:06:47;2.70;92.70
420;DHT22;42600;54.408;13.016;2023-03-02T02:09:19;2.70;92.70
420;DHT22;42600;54.408;13.016;2023-03-02T02:11:46;2.60;92.70
420;DHT22;42600;54.408;13.016;2023-03-02T02:14:13;2.70;92.70
420;DHT22;42600;54.408;13.016;2023-03-02T02:16:40;2.70;92.70
420;DHT22;42600;54.408;13.016;2023-03-02T02:19:17;2.70;92.70
420;DHT22;42600;54.408;13.016;2023-03-02T02:21:48;2.70;92.70
420;DHT22;42600;54.408;13.016;2023-03-02T02:24:18;2.70;92.70
420;DHT22;42600;54.408;13.016;2023-03-02T02:26:50;2.60;92.70
420;DHT22;42600;54.408;13.016;2023-03-02T02:29:20;2.60;92.70
420;DHT22;42600;54.408;13.016;2023-03-02T02:31:52;2.70;92.70
420;DHT22;42600;54.408;13.016;2023-03-02T02:34:23;2.70;92.70
420;DHT22;42600;54.408;13.016;2023-03-02T02:36:54;2.70;92.70
420;DHT22;42600;54.408;13.016;2023-03-02T02:39:24;2.70;92.70
420;DHT22;42600;54.408;13.016;2023-03-02T02:41:58;2.70;92.70
420;DHT22;42600;54.408;13.016;2023-03-02T02:44:25;2.70;92.70
420;DHT22;42600;54.408;13.016;2023-03-02T02:46:52;2.70;92.70
420;DHT22;42600;54.408;13.016;2023-03-02T02:49:28;2.70;92.70
420;DHT22;42600;54.408;13.016;2023-03-02T02:51:55;2.70;92.70
420;DHT22;42600;54.408;13.016;2023-03-02T02:54:22;2.80;92.70
420;DHT22;42600;54.408;13.016;2023-03-02T02:56:50;2.80;92.70
420;DHT22;42600;54.408;13.016;2023-03-02T02:59:22;2.70;92.70
420;DHT22;42600;54.408;13.016;2023-03-02T03:01:50;2.70;92.70
420;DHT22;42600;54.408;13.016;2023-03-02T03:04:18;2.70;92.70
420;DHT22;42600;54.408;13.016;2023-03-02T03:06:50;2.70;92.70
420;DHT22;42600;54.408;13.016;2023-03-02T03:09:17;2.70;92.70
420;DHT22;42600;54.408;13.016;2023-03-02T03:11:46;2.70;92.70
420;DHT22;42600;54.408;13.016;2023-03-02T03:14:16;2.70;92.70
420;DHT22;42600;54.408;13.016;2023-03-02T03:16:46;2.70;92.70
420;DHT22;42600;54.408;13.016;2023-03-02T03:19:17;2.70;92.70
420;DHT22;42600;54.408;13.016;2023-03-02T03:21:47;2.70;92.70
420;DHT22;42600;54.408;13.016;2023-03-02T03:24:14;2.70;92.70
420;DHT22;42600;54.408;13.016;2023-03-02T03:26:41;2.70;92.70
420;DHT22;42600;54.408;13.016;2023-03-02T03:29:07;2.80;92.70
420;DHT22;42600;54.408;13.016;2023-03-02T03:31:34;2.80;92.70
420;DHT22;42600;54.408;13.016;2023-03-02T03:34:02;2.80;92.70
420;DHT22;42600;54.408;13.016;2023-03-02T03:36:30;2.80;92.70
420;DHT22;42600;54.408;13.016;2023-03-02T03:38:57;2.80;92.70
420;DHT22;42600;54.408;13.016;2023-03-02T03:41:24;2.80;92.70
420;DHT22;42600;54.408;13.016;2023-03-02T03:43:52;2.90;92.70
420;DHT22;42600;54.408;13.016;2023-03-02T03:46:19;2.90;92.70
420;DHT22;42600;54.408;13.016;2023-03-02T03:48:45;2.90;92.70
420;DHT22;42600;54.408;13.016;2023-03-02T03:51:13;2.80;92.70
420;DHT22;42600;54.408;13.016;2023-03-02T03:53:40;2.90;92.70
420;DHT22;42600;54.408;13.016;2023-03-02T03:56:07;2.90;92.70
420;DHT22;42600;54.408;13.016;2023-03-02T03:58:33;2.90;92.70
420;DHT22;42600;54.408;13.016;2023-03-02T04:01:00;2.90;92.70
420;DHT22;42600;54.408;13.016;2023-03-02T04:03:27;2.90;92.70
420;DHT22;42600;54.408;13.016;2023-03-02T04:05:54;2.90;92.70
420;DHT22;42600;54.408;13.016;2023-03-02T04:08:22;2.90;92.70
420;DHT22;42600;54.408;13.016;2023-03-02T04:10:48;2.90;92.70
420;DHT22;42600;54.408;13.016;2023-03-02T04:13:15;3.00;92.70
420;DHT22;42600;54.408;13.016;2023-03-02T04:15:41;3.00;92.70
420;DHT22;42600;54.408;13.016;2023-03-02T04:18:08;3.00;92.70
420;DHT22;42600;54.408;13.016;2023-03-02T04:20:35;3.10;92.70
420;DHT22;42600;54.408;13.016;2023-03-02T04:23:01;3.10;92.70
420;DHT22;42600;54.408;13.016;2023-03-02T04:25:30;3.00;92.70
420;DHT22;42600;54.408;13.016;2023-03-02T04:27:56;3.10;92.70
420;DHT22;42600;54.408;13.016;2023-03-02T04:30:25;3.00;92.70
420;DHT22;42600;54.408;13.016;2023-03-02T04:32:52;3.10;92.70
420;DHT22;42600;54.408;13.016;2023-03-02T04:35:21;3.00;92.70
420;DHT22;42600;54.408;13.016;2023-03-02T04:37:50;3.10;92.70
420;DHT22;42600;54.408;13.016;2023-03-02T04:40:16;3.00;92.70
420;DHT22;42600;54.408;13.016;2023-03-02T04:42:44;3.10;92.70
420;DHT22;42600;54.408;13.016;2023-03-02T04:45:12;3.10;92.70
420;DHT22;42600;54.408;13.016;2023-03-02T04:47:39;3.10;92.70
420;DHT22;42600;54.408;13.016;2023-03-02T04:50:07;3.10;92.70
420;DHT22;42600;54.408;13.016;2023-03-02T04:52:35;3.10;92.70
420;DHT22;42600;54.408;13.016;2023-03-02T04:55:01;3.10;92.70
420;DHT22;42600;54.408;13.016;2023-03-02T04:57:28;3.10;92.70
420;DHT22;42600;54.408;13.016;2023-03-02T04:59:56;3.10;92.70
420;DHT22;42600;54.408;13.016;2023-03-02T05:02:23;3.10;92.70
420;DHT22;42600;54.408;13.016;2023-03-02T05:04:49;3.10;92.70
420;DHT22;42600;54.408;13.016;2023-03-02T05:07:16;3.10;92.70
420;DHT22;42600;54.408;13.016;2023-03-02T05:09:42;3.10;92.70
420;DHT22;42600;54.408;13.016;2023-03-02T05:12:09;3.10;92.70
420;DHT22;42600;54.408;13.016;2023-03-02T05:14:36;3.10;92.70
420;DHT22;42600;54.408;13.016;2023-03-02T05:17:03;3.10;92.70
420;DHT22;42600;54.408;13.016;2023-03-02T05:19:30;3.10;92.70
420;DHT22;42600;54.408;13.016;2023-03-02T05:21:56;3.00;92.70
420;DHT22;42600;54.408;13.016;2023-03-02T05:24:23;3.00;92.70
420;DHT22;42600;54.408;13.016;2023-03-02T05:26:50;3.00;92.70
420;DHT22;42600;54.408;13.016;2023-03-02T05:29:16;3.00;92.70
420;DHT22;42600;54.408;13.016;2023-03-02T05:31:44;3.00;92.70
420;DHT22;42600;54.408;13.016;2023-03-02T05:34:14;3.00;92.70
420;DHT22;42600;54.408;13.016;2023-03-02T05:36:43;3.00;92.70
420;DHT22;42600;54.408;13.016;2023-03-02T05:39:10;3.00;92.70
420;DHT22;42600;54.408;13.016;2023-03-02T05:41:37;3.00;92.70
420;DHT22;42600;54.408;13.016;2023-03-02T05:44:04;3.00;92.70
420;DHT22;42600;54.408;13.016;2023-03-02T05:46:33;3.00;92.70
420;DHT22;42600;54.408;13.016;2023-03-02T05:49:00;3.00;92.70
420;DHT22;42600;54.408;13.016;2023-03-02T05:51:28;3.00;92.70
420;DHT22;42600;54.408;13.016;2023-03-02T05:53:54;3.00;92.70
420;DHT22;42600;54.408;13.016;2023-03-02T05:56:21;3.00;92.70
420;DHT22;42600;54.408;13.016;2023-03-02T05:58:47;3.00;92.70
420;DHT22;42600;54.408;13.016;2023-03-02T06:01:14;3.00;92.70
420;DHT22;42600;54.408;13.016;2023-03-02T06:03:41;3.00;92.70
420;DHT22;42600;54.408;13.016;2023-03-02T06:06:07;3.00;92.70
420;DHT22;42600;54.408;13.016;2023-03-02T06:08:40;3.00;92.70
420;DHT22;42600;54.408;13.016;2023-03-02T06:11:07;3.00;92.70
420;DHT22;42600;54.408;13.016;2023-03-02T06:13:34;3.00;92.70
420;DHT22;42600;54.408;13.016;2023-03-02T06:16:01;3.00;92.70
420;DHT22;42600;54.408;13.016;2023-03-02T06:18:27;3.00;92.70
420;DHT22;42600;54.408;13.016;2023-03-02T06:20:54;3.10;92.70
420;DHT22;42600;54.408;13.016;2023-03-02T06:23:20;3.10;92.70
420;DHT22;42600;54.408;13.016;2023-03-02T06:25:48;3.10;92.70
420;DHT22;42600;54.408;13.016;2023-03-02T06:28:15;3.10;92.70
420;DHT22;42600;54.408;13.016;2023-03-02T06:30:44;3.10;92.70
420;DHT22;42600;54.408;13.016;2023-03-02T06:33:10;3.10;92.70
420;DHT22;42600;54.408;13.016;2023-03-02T06:35:37;3.00;92.70
420;DHT22;42600;54.408;13.016;2023-03-02T06:38:03;3.10;92.70
420;DHT22;42600;54.408;13.016;2023-03-02T06:40:30;3.10;92.70
420;DHT22;42600;54.408;13.016;2023-03-02T06:42:58;3.10;92.70
420;DHT22;42600;54.408;13.016;2023-03-02T06:45:25;3.10;92.70
420;DHT22;42600;54.408;13.016;2023-03-02T06:47:53;3.00;92.70
420;DHT22;42600;54.408;13.016;2023-03-02T06:50:20;3.10;92.70
420;DHT22;42600;54.408;13.016;2023-03-02T06:52:47;3.10;92.70
420;DHT22;42600;54.408;13.016;2023-03-02T06:55:13;3.10;92.70
420;DHT22;42600;54.408;13.016;2023-03-02T06:57:40;3.10;92.70
420;DHT22;42600;54.408;13.016;2023-03-02T07:00:09;3.10;92.70
420;DHT22;42600;54.408;13.016;2023-03-02T07:02:41;3.00;92.70
420;DHT22;42600;54.408;13.016;2023-03-02T07:05:08;3.00;92.70
420;DHT22;42600;54.408;13.016;2023-03-02T07:07:35;3.00;92.70
420;DHT22;42600;54.408;13.016;2023-03-02T07:10:02;3.00;92.70
420;DHT22;42600;54.408;13.016;2023-03-02T07:12:29;3.00;92.70
420;DHT22;42600;54.408;13.016;2023-03-02T07:14:55;3.10;92.70
420;DHT22;42600;54.408;13.016;2023-03-02T07:17:23;3.10;92.70
420;DHT22;42600;54.408;13.016;2023-03-02T07:19:50;3.10;92.70
420;DHT22;42600;54.408;13.016;2023-03-02T07:22:16;3.00;92.70
420;DHT22;42600;54.408;13.016;2023-03-02T07:24:43;3.00;92.70
420;DHT22;42600;54.408;13.016;2023-03-02T07:27:09;3.00;92.70
420;DHT22;42600;54.408;13.016;2023-03-02T07:29:36;3.00;92.70
420;DHT22;42600;54.408;13.016;2023-03-02T07:32:02;3.00;92.70
420;DHT22;42600;54.408;13.016;2023-03-02T07:34:32;2.80;92.70
420;DHT22;42600;54.408;13.016;2023-03-02T07:36:59;2.80;92.70
420;DHT22;42600;54.408;13.016;2023-03-02T07:39:25;2.80;92.70
420;DHT22;42600;54.408;13.016;2023-03-02T07:41:52;2.90;92.70
420;DHT22;42600;54.408;13.016;2023-03-02T07:44:18;2.90;92.70
420;DHT22;42600;54.408;13.016;2023-03-02T07:46:45;2.90;92.70
420;DHT22;42600;54.408;13.016;2023-03-02T07:49:11;2.80;92.70
420;DHT22;42600;54.408;13.016;2023-03-02T07:51:39;2.80;92.70
420;DHT22;42600;54.408;13.016;2023-03-02T07:54:06;2.90;92.70
420;DHT22;42600;54.408;13.016;2023-03-02T07:56:32;3.00;92.70
420;DHT22;42600;54.408;13.016;2023-03-02T07:58:59;3.10;92.70
420;DHT22;42600;54.408;13.016;2023-03-02T08:01:26;3.10;92.70
420;DHT22;42600;54.408;13.016;2023-03-02T08:03:52;3.00;92.70
420;DHT22;42600;54.408;13.016;2023-03-02T08:06:19;3.00;92.70
420;DHT22;42600;54.408;13.016;2023-03-02T08:08:47;3.10;92.70
420;DHT22;42600;54.408;13.016;2023-03-02T08:11:15;3.00;92.70
420;DHT22;42600;54.408;13.016;2023-03-02T08:13:42;3.10;92.70
420;DHT22;42600;54.408;13.016;2023-03-02T08:16:11;3.00;92.70
420;DHT22;42600;54.408;13.016;2023-03-02T08:18:38;3.20;92.70
420;DHT22;42600;54.408;13.016;2023-03-02T08:21:11;3.40;92.70
420;DHT22;42600;54.408;13.016;2023-03-02T08:23:37;3.60;92.70
420;DHT22;42600;54.408;13.016;2023-03-02T08:26:05;3.60;92.70
420;DHT22;42600;54.408;13.016;2023-03-02T08:28:32;3.50;92.70
420;DHT22;42600;54.408;13.016;2023-03-02T08:31:00;3.40;92.70
420;DHT22;42600;54.408;13.016;2023-03-02T08:33:28;3.50;92.70
420;DHT22;42600;54.408;13.016;2023-03-02T08:35:56;3.60;92.70
420;DHT22;42600;54.408;13.016;2023-03-02T08:38:23;3.70;92.70
420;DHT22;42600;54.408;13.016;2023-03-02T08:40:49;3.60;92.70
420;DHT22;42600;54.408;13.016;2023-03-02T08:43:18;3.60;92.70
420;DHT22;42600;54.408;13.016;2023-03-02T08:45:48;3.80;92.70
420;DHT22;42600;54.408;13.016;2023-03-02T08:48:15;3.80;92.70
420;DHT22;42600;54.408;13.016;2023-03-02T08:50:42;4.00;92.70
420;DHT22;42600;54.408;13.016;2023-03-02T08:53:08;3.90;92.70
420;DHT22;42600;54.408;13.016;2023-03-02T08:55:35;3.70;92.70
420;DHT22;42600;54.408;13.016;2023-03-02T08:58:02;3.80;92.70
420;DHT22;42600;54.408;13.016;2023-03-02T09:00:31;4.00;92.70
420;DHT22;42600;54.408;13.016;2023-03-02T09:02:57;4.10;92.70
420;DHT22;42600;54.408;13.016;2023-03-02T09:05:24;4.20;92.70
420;DHT22;42600;54.408;13.016;2023-03-02T09:07:50;4.30;92.70
420;DHT22;42600;54.408;13.016;2023-03-02T09:10:17;4.20;92.70
420;DHT22;42600;54.408;13.016;2023-03-02T09:12:44;4.30;92.70
420;DHT22;42600;54.408;13.016;2023-03-02T09:15:10;4.20;92.70
420;DHT22;42600;54.408;13.016;2023-03-02T09:17:38;4.20;92.70
420;DHT22;42600;54.408;13.016;2023-03-02T09:20:06;4.30;92.70
420;DHT22;42600;54.408;13.016;2023-03-02T09:22:33;4.30;92.70
420;DHT22;42600;54.408;13.016;2023-03-02T09:25:00;4.40;92.70
420;DHT22;42600;54.408;13.016;2023-03-02T09:27:26;4.50;92.70
420;DHT22;42600;54.408;13.016;2023-03-02T09:29:53;4.50;92.70
420;DHT22;42600;54.408;13.016;2023-03-02T09:32:20;4.50;92.70
420;DHT22;42600;54.408;13.016;2023-03-02T09:34:48;4.50;92.70
420;DHT22;42600;54.408;13.016;2023-03-02T09:37:14;4.60;92.70
420;DHT22;42600;54.408;13.016;2023-03-02T09:39:41;4.70;92.70
420;DHT22;42600;54.408;13.016;2023-03-02T09:42:24;4.70;92.70
420;DHT22;42600;54.408;13.016;2023-03-02T09:45:20;4.70;92.70
420;DHT22;42600;54.408;13.016;2023-03-02T09:47:57;4.80;92.70
420;DHT22;42600;54.408;13.016;2023-03-02T09:50:31;4.90;92.70
420;DHT22;42600;54.408;13.016;2023-03-02T09:53:10;4.90;92.70
420;DHT22;42600;54.408;13.016;2023-03-02T09:55:40;4.80;92.70
420;DHT22;42600;54.408;13.016;2023-03-02T09:58:13;4.80;92.70
420;DHT22;42600;54.408;13.016;2023-03-02T10:00:42;4.90;92.70
420;DHT22;42600;54.408;13.016;2023-03-02T10:03:12;5.20;92.70
420;DHT22;42600;54.408;13.016;2023-03-02T10:05:45;5.30;92.70
420;DHT22;42600;54.408;13.016;2023-03-02T10:08:12;5.30;92.70
420;DHT22;42600;54.408;13.016;2023-03-02T10:10:43;5.40;92.70
420;DHT22;42600;54.408;13.016;2023-03-02T10:13:20;5.40;92.70
420;DHT22;42600;54.408;13.016;2023-03-02T10:15:56;5.40;92.70
420;DHT22;42600;54.408;13.016;2023-03-02T10:18:30;5.50;92.70
420;DHT22;42600;54.408;13.016;2023-03-02T10:21:02;5.60;92.70
420;DHT22;42600;54.408;13.016;2023-03-02T10:23:38;5.70;92.70
420;DHT22;42600;54.408;13.016;2023-03-02T10:26:17;5.80;92.70
420;DHT22;42600;54.408;13.016;2023-03-02T10:28:47;5.80;92.70
420;DHT22;42600;54.408;13.016;2023-03-02T10:31:23;5.90;92.70
420;DHT22;42600;54.408;13.016;2023-03-02T10:33:51;6.00;92.70
420;DHT22;42600;54.408;13.016;2023-03-02T10:36:22;6.10;92.70
420;DHT22;42600;54.408;13.016;2023-03-02T10:38:50;5.90;92.70
420;DHT22;42600;54.408;13.016;2023-03-02T10:41:21;5.70;92.70
420;DHT22;42600;54.408;13.016;2023-03-02T10:43:51;5.70;92.70
420;DHT22;42600;54.408;13.016;2023-03-02T10:46:20;5.90;92.70
420;DHT22;42600;54.408;13.016;2023-03-02T10:48:48;6.10;92.70
420;DHT22;42600;54.408;13.016;2023-03-02T10:51:25;6.30;92.70
420;DHT22;42600;54.408;13.016;2023-03-02T10:54:05;6.40;92.70
420;DHT22;42600;54.408;13.016;2023-03-02T10:56:32;6.40;92.70
420;DHT22;42600;54.408;13.016;2023-03-02T10:58:59;6.40;92.70
420;DHT22;42600;54.408;13.016;2023-03-02T11:01:28;6.30;92.70
420;DHT22;42600;54.408;13.016;2023-03-02T11:03:57;6.20;92.70
420;DHT22;42600;54.408;13.016;2023-03-02T11:06:25;6.20;92.70
420;DHT22;42600;54.408;13.016;2023-03-02T11:09:03;5.80;92.70
420;DHT22;42600;54.408;13.016;2023-03-02T11:11:30;5.70;92.70
420;DHT22;42600;54.408;13.016;2023-03-02T11:14:07;5.60;92.70
420;DHT22;42600;54.408;13.016;2023-03-02T11:16:33;5.50;92.70
420;DHT22;42600;54.408;13.016;2023-03-02T11:19:02;5.50;92.70
420;DHT22;42600;54.408;13.016;2023-03-02T11:21:34;5.40;92.70
420;DHT22;42600;54.408;13.016;2023-03-02T11:24:06;5.30;92.70
420;DHT22;42600;54.408;13.016;2023-03-02T11:26:37;5.20;92.70
420;DHT22;42600;54.408;13.016;2023-03-02T11:29:11;5.00;92.70
420;DHT22;42600;54.408;13.016;2023-03-02T11:31:42;5.20;92.70
420;DHT22;42600;54.408;13.016;2023-03-02T11:34:23;5.10;92.70
420;DHT22;42600;54.408;13.016;2023-03-02T11:36:59;4.90;92.70
420;DHT22;42600;54.408;13.016;2023-03-02T11:39:31;5.40;92.70
420;DHT22;42600;54.408;13.016;2023-03-02T11:42:01;5.50;92.70
420;DHT22;42600;54.408;13.016;2023-03-02T11:44:28;5.70;92.70
420;DHT22;42600;54.408;13.016;2023-03-02T11:46:59;6.10;92.70
420;DHT22;42600;54.408;13.016;2023-03-02T11:49:35;5.90;92.70
420;DHT22;42600;54.408;13.016;2023-03-02T11:52:03;6.00;92.70
420;DHT22;42600;54.408;13.016;2023-03-02T11:54:35;5.60;92.70
420;DHT22;42600;54.408;13.016;2023-03-02T11:57:04;5.70;92.70
420;DHT22;42600;54.408;13.016;2023-03-02T11:59:32;5.90;92.70
420;DHT22;42600;54.408;13.016;2023-03-02T12:02:00;5.70;92.70
420;DHT22;42600;54.408;13.016;2023-03-02T12:04:30;5.60;92.70
420;DHT22;42600;54.408;13.016;2023-03-02T12:06:58;5.20;92.70
420;DHT22;42600;54.408;13.016;2023-03-02T12:09:30;5.10;92.70
420;DHT22;42600;54.408;13.016;2023-03-02T12:12:22;5.50;92.70
420;DHT22;42600;54.408;13.016;2023-03-02T12:14:51;5.70;92.70
420;DHT22;42600;54.408;13.016;2023-03-02T12:17:30;6.10;92.70
420;DHT22;42600;54.408;13.016;2023-03-02T12:20:17;6.10;92.70
420;DHT22;42600;54.408;13.016;2023-03-02T12:22:47;6.20;92.70
420;DHT22;42600;54.408;13.016;2023-03-02T12:25:38;6.00;92.70
420;DHT22;42600;54.408;13.016;2023-03-02T12:28:25;6.10;92.70
420;DHT22;42600;54.408;13.016;2023-03-02T12:31:00;5.80;92.70
420;DHT22;42600;54.408;13.016;2023-03-02T12:33:27;5.20;92.70
420;DHT22;42600;54.408;13.016;2023-03-02T12:36:03;4.70;92.70
420;DHT22;42600;54.408;13.016;2023-03-02T12:38:32;4.50;92.70
420;DHT22;42600;54.408;13.016;2023-03-02T12:41:21;4.70;92.70
420;DHT22;42600;54.408;13.016;2023-03-02T12:44:00;4.80;92.70
420;DHT22;42600;54.408;13.016;2023-03-02T12:46:31;5.20;92.70
420;DHT22;42600;54.408;13.016;2023-03-02T12:49:02;4.60;92.70
420;DHT22;42600;54.408;13.016;2023-03-02T12:51:42;4.40;92.70
420;DHT22;42600;54.408;13.016;2023-03-02T12:54:12;4.20;92.70
420;DHT22;42600;54.408;13.016;2023-03-02T12:56:41;4.20;92.70
420;DHT22;42600;54.408;13.016;2023-03-02T12:59:19;4.80;92.70
420;DHT22;42600;54.408;13.016;2023-03-02T13:01:46;5.20;92.70
420;DHT22;42600;54.408;13.016;2023-03-02T13:04:23;5.20;92.70
420;DHT22;42600;54.408;13.016;2023-03-02T13:06:50;4.50;92.70
420;DHT22;42600;54.408;13.016;2023-03-02T13:09:17;4.10;92.70
420;DHT22;42600;54.408;13.016;2023-03-02T13:11:46;3.80;92.70
420;DHT22;42600;54.408;13.016;2023-03-02T13:14:19;3.80;92.70
420;DHT22;42600;54.408;13.016;2023-03-02T13:16:54;3.80;92.70
420;DHT22;42600;54.408;13.016;2023-03-02T13:19:21;3.80;92.70
420;DHT22;42600;54.408;13.016;2023-03-02T13:21:48;4.10;92.70
420;DHT22;42600;54.408;13.016;2023-03-02T13:24:27;4.10;92.70
420;DHT22;42600;54.408;13.016;2023-03-02T13:26:56;3.90;92.70
420;DHT22;42600;54.408;13.016;2023-03-02T13:29:26;3.90;92.70
420;DHT22;42600;54.408;13.016;2023-03-02T13:31:53;3.90;92.70
420;DHT22;42600;54.408;13.016;2023-03-02T13:34:21;3.90;92.70
420;DHT22;42600;54.408;13.016;2023-03-02T13:36:49;4.40;92.70
420;DHT22;42600;54.408;13.016;2023-03-02T13:39:18;4.40;92.70
420;DHT22;42600;54.408;13.016;2023-03-02T13:41:52;4.20;92.70
420;DHT22;42600;54.408;13.016;2023-03-02T13:44:25;4.20;92.70
420;DHT22;42600;54.408;13.016;2023-03-02T13:46:51;4.00;92.70
420;DHT22;42600;54.408;13.016;2023-03-02T13:49:25;4.20;92.70
420;DHT22;42600;54.408;13.016;2023-03-02T13:51:57;4.10;92.70
420;DHT22;42600;54.408;13.016;2023-03-02T13:54:28;4.30;92.70
420;DHT22;42600;54.408;13.016;2023-03-02T13:56:56;4.40;92.70
420;DHT22;42600;54.408;13.016;2023-03-02T13:59:24;4.10;92.70
420;DHT22;42600;54.408;13.016;2023-03-02T14:01:51;4.10;92.70
420;DHT22;42600;54.408;13.016;2023-03-02T14:04:20;4.10;92.70
420;DHT22;42600;54.408;13.016;2023-03-02T14:06:48;4.10;92.70
420;DHT22;42600;54.408;13.016;2023-03-02T14:09:15;4.10;92.70
420;DHT22;42600;54.408;13.016;2023-03-02T14:11:44;4.10;92.70
420;DHT22;42600;54.408;13.016;2023-03-02T14:14:13;4.00;92.70
420;DHT22;42600;54.408;13.016;2023-03-02T14:16:42;4.10;92.70
420;DHT22;42600;54.408;13.016;2023-03-02T14:19:09;4.10;92.70
420;DHT22;42600;54.408;13.016;2023-03-02T14:21:38;4.00;92.70
420;DHT22;42600;54.408;13.016;2023-03-02T14:24:05;3.80;92.70
420;DHT22;42600;54.408;13.016;2023-03-02T14:26:34;4.30;92.70
420;DHT22;42600;54.408;13.016;2023-03-02T14:29:06;4.70;92.70
420;DHT22;42600;54.408;13.016;2023-03-02T14:31:35;4.80;92.70
420;DHT22;42600;54.408;13.016;2023-03-02T14:34:03;4.90;92.70
420;DHT22;42600;54.408;13.016;2023-03-02T14:36:31;5.10;92.70
420;DHT22;42600;54.408;13.016;2023-03-02T14:39:00;5.20;92.70
420;DHT22;42600;54.408;13.016;2023-03-02T14:41:28;5.20;92.70
420;DHT22;42600;54.408;13.016;2023-03-02T14:43:54;5.10;92.70
420;DHT22;42600;54.408;13.016;2023-03-02T14:46:21;4.50;92.70
420;DHT22;42600;54.408;13.016;2023-03-02T14:48:47;4.30;92.70
420;DHT22;42600;54.408;13.016;2023-03-02T14:51:20;4.60;92.70
420;DHT22;42600;54.408;13.016;2023-03-02T14:53:48;4.60;92.70
420;DHT22;42600;54.408;13.016;2023-03-02T14:56:17;4.50;92.70
420;DHT22;42600;54.408;13.016;2023-03-02T14:58:47;4.40;92.70
420;DHT22;42600;54.408;13.016;2023-03-02T15:01:14;4.30;92.70
420;DHT22;42600;54.408;13.016;2023-03-02T15:03:40;4.00;92.70
420;DHT22;42600;54.408;13.016;2023-03-02T15:06:23;4.20;92.70
420;DHT22;42600;54.408;13.016;2023-03-02T15:08:50;4.50;92.70
420;DHT22;42600;54.408;13.016;2023-03-02T15:11:17;4.60;92.70
420;DHT22;42600;54.408;13.016;2023-03-02T15:13:43;4.40;92.70
420;DHT22;42600;54.408;13.016;2023-03-02T15:16:10;4.40;92.70
420;DHT22;42600;54.408;13.016;2023-03-02T15:18:37;4.10;92.70
420;DHT22;42600;54.408;13.016;2023-03-02T15:21:04;4.40;92.70
420;DHT22;42600;54.408;13.016;2023-03-02T15:23:32;4.40;92.70
420;DHT22;42600;54.408;13.016;2023-03-02T15:25:59;4.20;92.70
420;DHT22;42600;54.408;13.016;2023-03-02T15:28:26;4.40;92.70
420;DHT22;42600;54.408;13.016;2023-03-02T15:30:53;4.40;92.70
420;DHT22;42600;54.408;13.016;2023-03-02T15:33:21;4.20;92.70
420;DHT22;42600;54.408;13.016;2023-03-02T15:35:50;4.10;92.70
420;DHT22;42600;54.408;13.016;2023-03-02T15:38:17;4.00;92.70
420;DHT22;42600;54.408;13.016;2023-03-02T15:40:44;4.30;92.70
420;DHT22;42600;54.408;13.016;2023-03-02T15:43:11;4.60;92.70
420;DHT22;42600;54.408;13.016;2023-03-02T15:45:43;4.70;92.70
420;DHT22;42600;54.408;13.016;2023-03-02T15:48:09;4.70;92.70
420;DHT22;42600;54.408;13.016;2023-03-02T15:50:36;4.60;92.70
420;DHT22;42600;54.408;13.016;2023-03-02T15:53:03;4.10;92.70
420;DHT22;42600;54.408;13.016;2023-03-02T15:55:30;3.80;92.70
420;DHT22;42600;54.408;13.016;2023-03-02T15:57:58;3.70;92.70
420;DHT22;42600;54.408;13.016;2023-03-02T16:00:24;3.60;92.70
420;DHT22;42600;54.408;13.016;2023-03-02T16:02:51;3.60;92.70
420;DHT22;42600;54.408;13.016;2023-03-02T16:05:18;3.40;92.70
420;DHT22;42600;54.408;13.016;2023-03-02T16:07:44;3.80;92.70
420;DHT22;42600;54.408;13.016;2023-03-02T16:10:11;3.90;92.70
420;DHT22;42600;54.408;13.016;2023-03-02T16:12:40;3.90;92.70